sensor_id;sensor_type;location;lat;lon;timestamp;temperature;humidity
76750;DHT22;66447;35.844;14.468;2023-09-12T00:06:41;31.40;118.99
76750;DHT22;66447;35.844;14.468;2023-09-12T00:21:41;31.92;118.99
76750;DHT22;66447;35.844;14.468;2023-09-12T00:36:42;32.01;118.99
76750;DHT22;66447;35.844;14.468;2023-09-12T00:51:44;32.71;118.99
76750;DHT22;66447;35.844;14.468;2023-09-12T01:06:45;32.60;107.56
76750;DHT22;66447;35.844;14.468;2023-09-12T01:22:21;32.72;112.17
76750;DHT22;66447;35.844;14.468;2023-09-12T01:37:24;31.58;118.99
76750;DHT22;66447;35.844;14.468;2023-09-12T01:52:27;32.88;118.99
76750;DHT22;66447;35.844;14.468;2023-09-12T02:07:29;31.22;118.99
76750;DHT22;66447;35.844;14.468;2023-09-12T02:22:33;30.33;118.99
76750;DHT22;66447;35.844;14.468;2023-09-12T02:37:34;30.74;118.99
76750;DHT22;66447;35.844;14.468;2023-09-12T02:52:35;30.89;118.99
76750;DHT22;66447;35.844;14.468;2023-09-12T03:07:36;30.75;118.99
76750;DHT22;66447;35.844;14.468;2023-09-12T03:22:37;30.87;118.99
76750;DHT22;66447;35.844;14.468;2023-09-12T03:37:38;30.65;118.99
76750;DHT22;66447;35.844;14.468;2023-09-12T03:52:43;30.46;118.99
76750;DHT22;66447;35.844;14.468;2023-09-12T04:07:44;29.93;118.99
76750;DHT22;66447;35.844;14.468;2023-09-12T04:22:45;29.68;118.99
76750;DHT22;66447;35.844;14.468;2023-09-12T04:37:47;29.50;118.99
76750;DHT22;66447;35.844;14.468;2023-09-12T04:52:48;30.37;118.99
76750;DHT22;66447;35.844;14.468;2023-09-12T05:07:49;30.62;118.99
76750;DHT22;66447;35.844;14.468;2023-09-12T05:22:51;32.23;118.99
76750;DHT22;66447;35.844;14.468;2023-09-12T05:37:52;31.87;118.99
76750;DHT22;66447;35.844;14.468;2023-09-12T05:52:53;36.55;113.58
76750;DHT22;66447;35.844;14.468;2023-09-12T06:07:54;34.95;118.99
76750;DHT22;66447;35.844;14.468;2023-09-12T06:22:55;36.86;96.65
76750;DHT22;66447;35.844;14.468;2023-09-12T06:37:56;34.97;118.99
76750;DHT22;66447;35.844;14.468;2023-09-12T06:52:57;33.51;118.99
76750;DHT22;66447;35.844;14.468;2023-09-12T07:07:58;33.94;118.99
76750;DHT22;66447;35.844;14.468;2023-09-12T07:22:58;38.04;31.41
76750;DHT22;66447;35.844;14.468;2023-09-12T07:37:59;40.65;-2.18
76750;DHT22;66447;35.844;14.468;2023-09-12T07:53:00;38.12;2.21
76750;DHT22;66447;35.844;14.468;2023-09-12T08:08:01;41.47;-6.00
76750;DHT22;66447;35.844;14.468;2023-09-12T08:23:02;44.47;-6.00
76750;DHT22;66447;35.844;14.468;2023-09-12T08:38:03;44.54;-6.00
76750;DHT22;66447;35.844;14.468;2023-09-12T08:53:04;43.14;-6.00
76750;DHT22;66447;35.844;14.468;2023-09-12T09:08:06;41.90;-6.00
76750;DHT22;66447;35.844;14.468;2023-09-12T09:23:08;39.47;-1.33
76750;DHT22;66447;35.844;14.468;2023-09-12T09:38:09;41.24;-6.00
76750;DHT22;66447;35.844;14.468;2023-09-12T09:53:10;40.26;-6.00
76750;DHT22;66447;35.844;14.468;2023-09-12T10:08:12;39.77;6.47
76750;DHT22;66447;35.844;14.468;2023-09-12T10:38:42;40.77;-6.00
76750;DHT22;66447;35.844;14.468;2023-09-12T10:53:49;40.00;-6.00
76750;DHT22;66447;35.844;14.468;2023-09-12T11:24:14;39.83;-6.00
76750;DHT22;66447;35.844;14.468;2023-09-12T11:39:41;41.57;-6.00
76750;DHT22;66447;35.844;14.468;2023-09-12T11:54:43;41.42;-6.00
76750;DHT22;66447;35.844;14.468;2023-09-12T12:09:45;40.73;-6.00
76750;DHT22;66447;35.844;14.468;2023-09-12T12:24:46;38.53;-6.00
76750;DHT22;66447;35.844;14.468;2023-09-12T12:39:47;38.67;-6.00
76750;DHT22;66447;35.844;14.468;2023-09-12T12:54:48;39.34;-6.00
76750;DHT22;66447;35.844;14.468;2023-09-12T13:09:49;40.72;-6.00
76750;DHT22;66447;35.844;14.468;2023-09-12T13:24:50;37.66;-6.00
76750;DHT22;66447;35.844;14.468;2023-09-12T13:39:51;38.61;-6.00
76750;DHT22;66447;35.844;14.468;2023-09-12T13:54:52;38.89;-6.00
76750;DHT22;66447;35.844;14.468;2023-09-12T14:09:53;38.85;-6.00
76750;DHT22;66447;35.844;14.468;2023-09-12T14:24:56;38.80;-6.00
76750;DHT22;66447;35.844;14.468;2023-09-12T14:39:57;39.70;-6.00
76750;DHT22;66447;35.844;14.468;2023-09-12T14:54:58;36.92;-6.00
76750;DHT22;66447;35.844;14.468;2023-09-12T15:09:59;36.70;-6.00
76750;DHT22;66447;35.844;14.468;2023-09-12T15:25:02;36.33;-4.63
76750;DHT22;66447;35.844;14.468;2023-09-12T15:40:03;35.99;-6.00
76750;DHT22;66447;35.844;14.468;2023-09-12T15:55:06;36.39;-6.00
76750;DHT22;66447;35.844;14.468;2023-09-12T16:10:07;35.38;-6.00
76750;DHT22;66447;35.844;14.468;2023-09-12T16:25:09;35.39;-6.00
76750;DHT22;66447;35.844;14.468;2023-09-12T16:40:10;35.63;-6.00
76750;DHT22;66447;35.844;14.468;2023-09-12T16:55:11;33.51;29.00
76750;DHT22;66447;35.844;14.468;2023-09-12T17:10:13;34.64;16.38
76750;DHT22;66447;35.844;14.468;2023-09-12T17:25:14;34.07;20.28
76750;DHT22;66447;35.844;14.468;2023-09-12T17:40:15;33.78;24.34
76750;DHT22;66447;35.844;14.468;2023-09-12T17:55:16;34.15;14.39
76750;DHT22;66447;35.844;14.468;2023-09-12T18:10:18;34.12;16.91
76750;DHT22;66447;35.844;14.468;2023-09-12T18:25:19;33.95;19.89
76750;DHT22;66447;35.844;14.468;2023-09-12T18:40:20;33.55;25.94
76750;DHT22;66447;35.844;14.468;2023-09-12T18:55:25;33.61;29.06
76750;DHT22;66447;35.844;14.468;2023-09-12T19:10:27;34.16;17.42
76750;DHT22;66447;35.844;14.468;2023-09-12T19:25:30;34.39;18.87
76750;DHT22;66447;35.844;14.468;2023-09-12T19:40:41;33.65;29.94
76750;DHT22;66447;35.844;14.468;2023-09-12T19:55:52;32.81;47.63
76750;DHT22;66447;35.844;14.468;2023-09-12T20:10:53;32.90;45.54
76750;DHT22;66447;35.844;14.468;2023-09-12T20:25:55;32.68;50.43
76750;DHT22;66447;35.844;14.468;2023-09-12T20:40:56;32.12;57.65
76750;DHT22;66447;35.844;14.468;2023-09-12T20:55:57;32.38;54.33
76750;DHT22;66447;35.844;14.468;2023-09-12T21:10:58;32.61;50.02
76750;DHT22;66447;35.844;14.468;2023-09-12T21:25:59;31.55;71.16
76750;DHT22;66447;35.844;14.468;2023-09-12T21:41:01;30.81;90.80
76750;DHT22;66447;35.844;14.468;2023-09-12T21:56:02;31.39;79.52
76750;DHT22;66447;35.844;14.468;2023-09-12T22:11:03;31.25;80.29
76750;DHT22;66447;35.844;14.468;2023-09-12T22:26:09;31.41;77.82
76750;DHT22;66447;35.844;14.468;2023-09-12T22:41:10;31.40;83.78
76750;DHT22;66447;35.844;14.468;2023-09-12T22:56:11;31.68;80.37
76750;DHT22;66447;35.844;14.468;2023-09-12T23:11:12;30.51;110.91
76750;DHT22;66447;35.844;14.468;2023-09-12T23:26:12;30.27;118.99
76750;DHT22;66447;35.844;14.468;2023-09-12T23:41:14;31.28;100.73
76750;DHT22;66447;35.844;14.468;2023-09-12T23:56:15;31.94;87.07
